Time;durP1;ratioP1;P1;durP2;ratioP2;P2;SDS_P1;SDS_P2;PMS_P1;PMS_P2;Temp;Humidity;BMP_temperature;BMP_pressure;BME280_temperature;BME280_humidity;BME280_pressure;Samples;Min_cycle;Max_cycle;Signal;HPM_P1;HPM_P2
2023/09/21 00:01:04;;;;;;;2.07;1.83;;;17.40;99.90;;;;;;6183088;23;20631;-89
2023/09/21 00:03:30;;;;;;;8.50;1.73;;;17.40;99.90;;;;;;6212787;23;20272;-88
2023/09/21 00:05:57;;;;;;;1.40;1.30;;;17.50;99.90;;;;;;6237907;23;20244;-88
2023/09/21 00:08:24;;;;;;;5.93;1.63;;;17.50;99.90;;;;;;6212027;23;20193;-88
2023/09/21 00:10:54;;;;;;;3.80;1.50;;;17.50;99.90;;;;;;6188868;23;20189;-89
2023/09/21 00:13:22;;;;;;;1.87;1.57;;;17.50;99.90;;;;;;6187684;23;20565;-88
2023/09/21 00:15:49;;;;;;;1.17;1.10;;;17.60;99.90;;;;;;6187330;23;20531;-88
2023/09/21 00:18:15;;;;;;;2.67;1.30;;;17.60;99.90;;;;;;6184979;23;20575;-88
2023/09/21 00:23:07;;;;;;;3.47;1.50;;;17.70;99.90;;;;;;6186080;23;20240;-88
2023/09/21 00:25:34;;;;;;;3.27;1.37;;;17.80;99.90;;;;;;6189147;23;20576;-88
2023/09/21 00:28:07;;;;;;;1.40;1.17;;;17.80;99.90;;;;;;6187564;23;20197;-88
2023/09/21 00:30:35;;;;;;;1.23;1.20;;;17.90;99.90;;;;;;6188262;23;20235;-88
2023/09/21 00:33:02;;;;;;;1.23;1.13;;;18.00;99.90;;;;;;6187967;23;20193;-88
2023/09/21 00:35:29;;;;;;;1.60;1.27;;;18.00;99.90;;;;;;6212538;23;20273;-88
2023/09/21 00:37:57;;;;;;;1.40;1.20;;;18.00;99.90;;;;;;6210739;23;20539;-89
2023/09/21 00:40:24;;;;;;;3.13;1.37;;;18.10;99.90;;;;;;6184844;23;21064;-89
2023/09/21 00:42:52;;;;;;;1.63;1.50;;;18.10;99.90;;;;;;6187789;23;20220;-89
2023/09/21 00:45:21;;;;;;;9.80;1.87;;;18.10;99.90;;;;;;6213535;23;20276;-88
2023/09/21 00:47:52;;;;;;;1.13;1.03;;;18.20;99.90;;;;;;6215239;23;20190;-89
2023/09/21 00:50:21;;;;;;;1.30;1.20;;;18.10;99.90;;;;;;6188746;23;20202;-89
2023/09/21 00:52:51;;;;;;;2.93;1.33;;;18.10;99.90;;;;;;6214546;23;20201;-89
2023/09/21 00:55:30;;;;;;;2.57;1.37;;;18.10;99.90;;;;;;6188143;23;20208;-89
2023/09/21 00:58:02;;;;;;;1.20;0.87;;;18.00;99.90;;;;;;6208471;23;21068;-89
2023/09/21 01:00:31;;;;;;;1.87;1.67;;;18.00;99.90;;;;;;6208516;23;20276;-89
2023/09/21 01:03:12;;;;;;;2.43;1.40;;;17.90;99.90;;;;;;6212300;23;20194;-89
2023/09/21 01:05:44;;;;;;;2.77;1.37;;;17.90;99.90;;;;;;6190637;23;20208;-89
2023/09/21 01:08:17;;;;;;;1.60;1.30;;;17.90;99.90;;;;;;6215270;23;20143;-89
2023/09/21 01:10:49;;;;;;;1.50;1.30;;;17.90;99.90;;;;;;6167232;23;20174;-89
2023/09/21 01:13:18;;;;;;;1.57;1.40;;;17.90;99.90;;;;;;6214059;23;20682;-89
2023/09/21 01:15:48;;;;;;;3.77;1.90;;;17.90;99.90;;;;;;6190074;23;20677;-89
2023/09/21 01:18:16;;;;;;;1.93;1.63;;;17.90;99.90;;;;;;6215208;23;20190;-89
2023/09/21 01:20:43;;;;;;;1.43;1.00;;;17.90;99.90;;;;;;6191274;23;20186;-89
2023/09/21 01:23:19;;;;;;;2.00;1.53;;;17.90;99.90;;;;;;6165159;23;20165;-88
2023/09/21 01:25:50;;;;;;;1.80;0.83;;;18.00;99.90;;;;;;6214448;23;20154;-88
2023/09/21 01:28:22;;;;;;;5.70;2.20;;;18.00;99.90;;;;;;6213742;23;20197;-89
2023/09/21 01:30:51;;;;;;;1.63;1.43;;;18.00;99.90;;;;;;6214245;23;20202;-89
2023/09/21 01:33:17;;;;;;;1.00;1.00;;;18.10;99.90;;;;;;6187152;23;20655;-89
2023/09/21 01:35:44;;;;;;;2.67;1.50;;;18.10;99.90;;;;;;6160368;23;20548;-89
2023/09/21 01:38:12;;;;;;;1.30;1.20;;;18.10;99.90;;;;;;6212245;23;20528;-89
2023/09/21 01:40:39;;;;;;;1.57;1.47;;;18.10;99.90;;;;;;6211652;23;20164;-88
2023/09/21 01:43:16;;;;;;;4.23;1.17;;;18.00;99.90;;;;;;6210472;23;20205;-89
2023/09/21 01:45:49;;;;;;;1.73;0.93;;;18.10;99.90;;;;;;6214167;23;21090;-89
2023/09/21 01:48:18;;;;;;;2.10;1.50;;;18.00;99.90;;;;;;6214945;23;20197;-90
2023/09/21 01:50:47;;;;;;;1.30;1.20;;;18.00;99.90;;;;;;6165699;23;20193;-90
2023/09/21 01:53:18;;;;;;;1.30;1.20;;;18.00;99.90;;;;;;6213156;23;20284;-90
2023/09/21 01:55:47;;;;;;;0.93;0.90;;;18.00;99.90;;;;;;6190323;23;20572;-90
2023/09/21 01:58:14;;;;;;;1.50;1.23;;;18.00;99.90;;;;;;6186951;23;20540;-90
2023/09/21 02:00:48;;;;;;;2.57;1.07;;;17.90;99.90;;;;;;6211971;23;20193;-89
2023/09/21 02:03:19;;;;;;;1.90;1.13;;;17.90;99.90;;;;;;6212150;23;20194;-89
2023/09/21 02:05:46;;;;;;;1.00;1.00;;;17.90;99.90;;;;;;6215145;23;20224;-88
2023/09/21 02:08:13;;;;;;;1.33;1.03;;;17.80;99.90;;;;;;6189925;23;20580;-89
2023/09/21 02:10:40;;;;;;;2.70;1.53;;;17.80;99.90;;;;;;6166233;23;20244;-89
2023/09/21 02:13:07;;;;;;;1.60;1.33;;;17.80;99.90;;;;;;6190029;23;20690;-89
2023/09/21 02:15:35;;;;;;;3.33;1.20;;;17.80;99.90;;;;;;6214269;23;20260;-89
2023/09/21 02:18:02;;;;;;;1.93;1.17;;;17.80;99.90;;;;;;6213959;23;20212;-88
2023/09/21 02:20:29;;;;;;;1.50;1.10;;;17.80;99.90;;;;;;6214442;23;20190;-88
2023/09/21 02:23:00;;;;;;;1.50;1.40;;;17.80;99.90;;;;;;6189052;23;20158;-89
2023/09/21 02:25:30;;;;;;;2.90;1.60;;;17.80;99.90;;;;;;6213602;23;20185;-89
2023/09/21 02:27:56;;;;;;;1.00;1.00;;;17.80;99.90;;;;;;6213617;23;20204;-89
2023/09/21 02:30:24;;;;;;;1.17;0.90;;;17.90;99.90;;;;;;6164833;23;20229;-89
2023/09/21 02:32:52;;;;;;;1.40;1.00;;;17.90;99.90;;;;;;6213140;23;20193;-88
2023/09/21 02:35:24;;;;;;;3.07;1.40;;;17.90;99.90;;;;;;6214032;23;20214;-88
2023/09/21 02:37:51;;;;;;;2.77;1.40;;;17.90;99.90;;;;;;6214276;23;20138;-88
2023/09/21 02:40:19;;;;;;;1.30;1.20;;;18.00;99.90;;;;;;6213549;23;20740;-89
2023/09/21 02:42:53;;;;;;;3.17;1.83;;;18.00;99.90;;;;;;6213891;23;20516;-88
2023/09/21 02:45:29;;;;;;;2.10;1.37;;;18.00;99.90;;;;;;6190305;23;20209;-89
2023/09/21 02:48:00;;;;;;;1.50;0.93;;;18.00;99.90;;;;;;6191224;23;20565;-88
2023/09/21 02:50:27;;;;;;;1.57;1.20;;;18.00;99.90;;;;;;6214787;23;20532;-89
2023/09/21 02:52:54;;;;;;;3.20;1.33;;;18.10;99.90;;;;;;6189460;23;20217;-89
2023/09/21 02:55:21;;;;;;;1.47;1.37;;;18.10;99.90;;;;;;6188027;23;20258;-89
2023/09/21 02:57:55;;;;;;;3.30;1.20;;;18.10;99.90;;;;;;6211771;23;20277;-89
2023/09/21 03:03:04;;;;;;;2.03;1.83;;;18.20;99.90;;;;;;6210736;23;20988;-89
2023/09/21 03:05:33;;;;;;;1.43;1.33;;;18.20;99.90;;;;;;6189285;23;20560;-88
2023/09/21 03:08:09;;;;;;;2.43;1.70;;;18.20;99.90;;;;;;6190393;23;20162;-88
2023/09/21 03:10:36;;;;;;;2.13;1.23;;;18.10;99.90;;;;;;6192070;23;20189;-88
2023/09/21 03:13:02;;;;;;;3.30;2.20;;;18.10;99.90;;;;;;6188625;23;20650;-89
2023/09/21 03:15:29;;;;;;;1.87;1.40;;;18.10;99.90;;;;;;6188533;23;20271;-88
2023/09/21 03:17:55;;;;;;;2.83;1.60;;;18.10;99.90;;;;;;6213073;23;20213;-88
2023/09/21 03:20:34;;;;;;;2.17;1.60;;;18.10;99.90;;;;;;6213020;23;20190;-88
2023/09/21 03:23:05;;;;;;;1.50;1.07;;;18.00;99.90;;;;;;6190358;23;20156;-88
2023/09/21 03:25:40;;;;;;;2.97;1.13;;;18.00;99.90;;;;;;6189671;23;20139;-89
2023/09/21 03:28:10;;;;;;;1.53;1.43;;;18.00;99.90;;;;;;6190236;23;20251;-89
2023/09/21 03:30:44;;;;;;;2.13;1.57;;;17.90;99.90;;;;;;6188677;23;20211;-88
2023/09/21 03:33:10;;;;;;;1.77;1.27;;;17.90;99.90;;;;;;6188326;23;20198;-88
2023/09/21 03:35:37;;;;;;;1.47;1.10;;;17.90;99.90;;;;;;6188540;23;20193;-88
2023/09/21 03:38:08;;;;;;;2.20;1.03;;;17.80;99.90;;;;;;6188629;23;20192;-89
2023/09/21 03:40:34;;;;;;;4.10;1.63;;;17.80;99.90;;;;;;6165919;23;20159;-89
2023/09/21 03:42:59;;;;;;;2.33;1.07;;;17.90;99.90;;;;;;6163184;23;20278;-88
2023/09/21 03:45:26;;;;;;;2.80;1.70;;;17.90;99.90;;;;;;6212895;23;20256;-89
2023/09/21 03:47:55;;;;;;;2.13;1.33;;;17.90;99.90;;;;;;6163354;23;20213;-88
2023/09/21 03:50:27;;;;;;;1.20;1.10;;;17.90;99.90;;;;;;6187325;23;20232;-89
2023/09/21 03:52:53;;;;;;;1.67;1.47;;;17.90;99.90;;;;;;6213232;23;20284;-89
2023/09/21 03:55:22;;;;;;;11.67;1.83;;;17.80;99.90;;;;;;6162868;23;20205;-89
2023/09/21 03:57:48;;;;;;;1.50;1.40;;;17.90;99.90;;;;;;6185952;23;20522;-88
2023/09/21 04:00:36;;;;;;;1.20;1.10;;;17.80;99.90;;;;;;6159352;23;20308;-88
2023/09/21 04:03:10;;;;;;;3.27;1.70;;;17.80;99.90;;;;;;6212251;23;20194;-89
2023/09/21 04:05:37;;;;;;;1.20;1.10;;;17.80;99.90;;;;;;6187674;23;20186;-88
2023/09/21 04:08:06;;;;;;;1.50;1.40;;;17.80;99.90;;;;;;6212644;23;20530;-89
2023/09/21 04:10:33;;;;;;;1.67;1.20;;;17.90;99.90;;;;;;6213213;23;20196;-90
2023/09/21 04:12:59;;;;;;;1.27;1.17;;;18.00;99.90;;;;;;6187502;23;20256;-89
2023/09/21 04:15:28;;;;;;;3.07;1.47;;;18.10;99.90;;;;;;6212455;23;20197;-89
2023/09/21 04:17:55;;;;;;;1.80;1.17;;;18.10;99.90;;;;;;6212412;23;20202;-89
2023/09/21 04:20:21;;;;;;;1.30;1.20;;;18.10;99.90;;;;;;6188147;23;20543;-89
2023/09/21 04:22:49;;;;;;;7.20;1.47;;;18.10;99.90;;;;;;6189163;23;20161;-90
2023/09/21 04:25:16;;;;;;;1.30;1.20;;;18.00;99.90;;;;;;6213435;23;20217;-88
2023/09/21 04:27:47;;;;;;;2.60;1.67;;;18.10;99.90;;;;;;6187254;23;20185;-89
2023/09/21 04:30:16;;;;;;;1.67;1.43;;;18.00;99.90;;;;;;6211812;23;20260;-89
2023/09/21 04:32:46;;;;;;;2.07;1.70;;;17.90;99.90;;;;;;6212865;23;20189;-89
2023/09/21 04:35:13;;;;;;;1.73;1.43;;;17.90;99.90;;;;;;6187280;23;20208;-87
2023/09/21 04:37:39;;;;;;;1.20;1.10;;;17.80;99.90;;;;;;6212762;23;20160;-87
2023/09/21 04:40:09;;;;;;;2.03;1.30;;;17.80;99.90;;;;;;6187307;23;20288;-89
2023/09/21 04:42:40;;;;;;;2.27;1.27;;;17.80;99.90;;;;;;6179536;23;20201;-89
2023/09/21 04:45:11;;;;;;;1.90;1.80;;;17.70;99.90;;;;;;6213882;23;20213;-89
2023/09/21 04:47:49;;;;;;;0.87;0.83;;;17.80;99.90;;;;;;6164918;23;20198;-89
2023/09/21 04:50:16;;;;;;;1.07;1.00;;;17.70;99.90;;;;;;6214205;23;20583;-89
2023/09/21 04:52:43;;;;;;;3.40;0.90;;;17.80;99.90;;;;;;6189967;23;20245;-89
2023/09/21 04:55:10;;;;;;;1.00;1.00;;;17.70;99.90;;;;;;6214709;23;20515;-90
2023/09/21 04:57:36;;;;;;;1.73;1.30;;;17.70;99.90;;;;;;6213072;23;20206;-90
2023/09/21 05:00:07;;;;;;;1.30;1.20;;;17.70;99.90;;;;;;6185964;23;20198;-90
2023/09/21 05:02:33;;;;;;;2.00;1.30;;;17.80;99.90;;;;;;6211526;23;20601;-90
2023/09/21 05:04:59;;;;;;;2.30;1.47;;;17.80;99.90;;;;;;6189994;23;20489;-90
2023/09/21 05:07:25;;;;;;;2.87;1.47;;;17.80;99.90;;;;;;6166410;23;20182;-90
2023/09/21 05:09:51;;;;;;;1.73;1.60;;;17.80;99.90;;;;;;6189303;23;20292;-88
2023/09/21 05:12:18;;;;;;;2.30;1.77;;;17.90;99.90;;;;;;6213983;23;20785;-90
2023/09/21 05:14:50;;;;;;;3.33;1.73;;;17.80;99.90;;;;;;6214484;23;20197;-90
2023/09/21 05:17:21;;;;;;;5.77;2.37;;;17.80;99.90;;;;;;6164828;23;20202;-88
2023/09/21 05:19:46;;;;;;;1.60;1.37;;;17.80;99.90;;;;;;6215167;23;20642;-88
2023/09/21 05:22:12;;;;;;;2.03;1.87;;;17.80;99.90;;;;;;6239352;23;20205;-91
2023/09/21 05:24:39;;;;;;;5.20;2.00;;;17.80;99.90;;;;;;6164966;23;20202;-89
2023/09/21 05:27:06;;;;;;;2.83;1.57;;;17.70;99.90;;;;;;6214892;23;20225;-90
2023/09/21 05:29:32;;;;;;;3.17;1.33;;;17.80;99.90;;;;;;6165318;23;20194;-89
2023/09/21 05:31:57;;;;;;;1.57;1.30;;;17.80;99.90;;;;;;6185925;23;20483;-88
2023/09/21 05:34:27;;;;;;;2.27;1.43;;;17.80;99.90;;;;;;6160260;23;20166;-89
2023/09/21 05:36:54;;;;;;;1.50;1.40;;;17.80;99.90;;;;;;6163879;23;20208;-91
2023/09/21 05:39:20;;;;;;;4.97;2.03;;;17.90;99.90;;;;;;6214261;23;20264;-90
2023/09/21 05:41:50;;;;;;;2.00;1.80;;;17.90;99.90;;;;;;6214752;23;20193;-90
2023/09/21 05:44:21;;;;;;;1.70;1.60;;;17.80;99.90;;;;;;6189106;23;20161;-90
2023/09/21 05:46:49;;;;;;;2.37;1.70;;;17.80;99.90;;;;;;6191062;23;20197;-90
2023/09/21 05:49:22;;;;;;;2.03;1.67;;;17.80;99.90;;;;;;6189326;23;20216;-89
2023/09/21 05:51:52;;;;;;;1.77;1.30;;;17.80;99.90;;;;;;6214665;23;20206;-89
2023/09/21 05:54:23;;;;;;;3.13;2.03;;;17.70;99.90;;;;;;6189406;23;20209;-89
2023/09/21 05:56:53;;;;;;;3.10;2.17;;;17.70;99.90;;;;;;6190934;23;20190;-90
2023/09/21 05:59:21;;;;;;;2.60;1.73;;;17.60;99.90;;;;;;6209326;23;20220;-89
2023/09/21 06:01:48;;;;;;;3.93;1.93;;;17.60;99.90;;;;;;6209985;23;20192;-89
2023/09/21 06:04:16;;;;;;;3.40;2.73;;;17.60;99.90;;;;;;6162819;23;20194;-91
2023/09/21 06:06:43;;;;;;;2.20;2.00;;;17.60;99.90;;;;;;6213324;23;20627;-90
2023/09/21 06:09:18;;;;;;;2.50;2.03;;;17.60;99.90;;;;;;6164137;23;20194;-90
2023/09/21 06:11:48;;;;;;;2.93;1.97;;;17.60;99.90;;;;;;6209973;23;20272;-90
2023/09/21 06:14:15;;;;;;;2.40;1.40;;;17.60;99.90;;;;;;6161106;23;20158;-90
2023/09/21 06:16:43;;;;;;;1.93;1.60;;;17.50;99.90;;;;;;6160862;23;20166;-90
2023/09/21 06:19:13;;;;;;;2.03;1.83;;;17.50;99.90;;;;;;6185642;23;20509;-90
2023/09/21 06:21:39;;;;;;;2.73;2.50;;;17.50;99.90;;;;;;6185523;23;20194;-90
2023/09/21 06:24:09;;;;;;;4.07;1.90;;;17.40;99.90;;;;;;6210419;23;20193;-89
2023/09/21 06:26:36;;;;;;;2.13;1.73;;;17.40;99.90;;;;;;6185200;23;20235;-90
2023/09/21 06:29:03;;;;;;;4.87;2.37;;;17.40;99.90;;;;;;6186358;23;20630;-90
2023/09/21 06:31:28;;;;;;;2.37;1.70;;;17.40;99.90;;;;;;6185715;23;20189;-90
2023/09/21 06:33:58;;;;;;;2.60;2.30;;;17.50;99.90;;;;;;6160003;23;20202;-91
2023/09/21 06:36:30;;;;;;;8.23;2.57;;;17.50;99.90;;;;;;6185452;23;20583;-90
2023/09/21 06:38:59;;;;;;;2.87;2.23;;;17.50;99.90;;;;;;6161322;23;20193;-90
2023/09/21 06:41:25;;;;;;;2.60;2.40;;;17.50;99.90;;;;;;6186832;23;20182;-92
2023/09/21 06:43:51;;;;;;;2.10;1.37;;;17.50;99.90;;;;;;6188052;23;20788;-92
2023/09/21 06:46:18;;;;;;;0.40;0.40;;;17.40;99.90;;;;;;6186383;23;20209;-92
2023/09/21 06:48:45;;;;;;;0.77;0.77;;;16.90;99.90;;;;;;6186801;23;21003;-92
2023/09/21 06:51:11;;;;;;;1.37;0.73;;;16.60;99.90;;;;;;6186023;23;20258;-93
2023/09/21 06:53:37;;;;;;;0.50;0.50;;;16.50;99.90;;;;;;6184457;23;20210;-92
2023/09/21 06:56:05;;;;;;;0.57;0.57;;;16.20;99.90;;;;;;6160842;23;20253;-94
2023/09/21 06:58:31;;;;;;;0.60;0.60;;;15.90;99.90;;;;;;6186583;23;20281;-94
2023/09/21 07:00:58;;;;;;;0.37;0.37;;;15.80;99.90;;;;;;6186271;23;20695;-93
2023/09/21 07:03:24;;;;;;;0.70;0.70;;;15.80;99.90;;;;;;6160497;23;20695;-92
2023/09/21 07:05:50;;;;;;;1.60;0.40;;;15.90;99.90;;;;;;6160058;23;20190;-91
2023/09/21 07:08:17;;;;;;;0.83;0.50;;;15.90;99.90;;;;;;6209795;23;20663;-90
2023/09/21 07:10:45;;;;;;;0.27;0.27;;;15.90;99.90;;;;;;6184623;23;20186;-91
2023/09/21 07:13:11;;;;;;;1.27;0.73;;;16.00;99.90;;;;;;6208729;23;20194;-92
2023/09/21 07:15:38;;;;;;;0.30;0.30;;;16.00;99.90;;;;;;6183458;23;20776;-92
2023/09/21 07:18:09;;;;;;;0.87;0.50;;;16.00;99.90;;;;;;6158702;23;20202;-92
2023/09/21 07:20:35;;;;;;;1.57;0.60;;;16.00;99.90;;;;;;6184612;23;20273;-91
2023/09/21 07:23:01;;;;;;;3.00;1.47;;;16.10;99.90;;;;;;6183665;23;20163;-91
2023/09/21 07:25:30;;;;;;;0.97;0.63;;;16.00;99.90;;;;;;6185327;23;20155;-91
2023/09/21 07:27:57;;;;;;;1.03;0.47;;;15.90;99.90;;;;;;6209066;23;20965;-92
2023/09/21 07:30:25;;;;;;;1.20;0.67;;;15.80;99.90;;;;;;6209254;23;20846;-91
2023/09/21 07:32:52;;;;;;;1.93;0.53;;;15.80;99.90;;;;;;6209049;23;20185;-92
2023/09/21 07:35:21;;;;;;;0.30;0.30;;;15.80;99.90;;;;;;6183426;23;20189;-93
2023/09/21 07:37:51;;;;;;;0.37;0.33;;;15.80;99.90;;;;;;6160145;23;20194;-93
2023/09/21 07:40:18;;;;;;;0.30;0.30;;;15.80;99.90;;;;;;6182218;23;20668;-92
2023/09/21 07:42:45;;;;;;;0.90;0.90;;;15.90;99.90;;;;;;6184657;23;20657;-91
2023/09/21 07:45:11;;;;;;;0.50;0.50;;;15.90;99.90;;;;;;6183444;23;20667;-91
2023/09/21 07:47:38;;;;;;;0.30;0.30;;;16.00;99.90;;;;;;6183089;23;20213;-93
2023/09/21 07:50:05;;;;;;;0.43;0.43;;;16.00;99.90;;;;;;6207674;23;20193;-91
2023/09/21 07:52:32;;;;;;;0.30;0.30;;;16.00;99.90;;;;;;6182157;23;20193;-91
2023/09/21 07:54:59;;;;;;;0.73;0.60;;;16.00;99.90;;;;;;6207365;23;20252;-90
2023/09/21 07:57:25;;;;;;;0.50;0.47;;;16.00;99.90;;;;;;6158790;23;20198;-90
2023/09/21 07:59:51;;;;;;;0.90;0.50;;;16.00;99.90;;;;;;6182826;23;20252;-90
2023/09/21 08:02:18;;;;;;;1.67;0.70;;;15.90;99.90;;;;;;6183313;23;20198;-91
2023/09/21 08:04:44;;;;;;;0.63;0.50;;;16.00;99.90;;;;;;6160405;23;20170;-91
2023/09/21 08:07:10;;;;;;;0.60;0.40;;;16.00;99.90;;;;;;6183661;23;21021;-93
2023/09/21 08:09:36;;;;;;;1.10;0.60;;;16.00;99.90;;;;;;6159261;23;20289;-91
2023/09/21 08:12:02;;;;;;;0.60;0.50;;;15.90;99.90;;;;;;6160162;23;20297;-94
2023/09/21 08:14:29;;;;;;;0.47;0.47;;;15.90;99.90;;;;;;6184313;23;20194;-92
2023/09/21 08:16:55;;;;;;;0.30;0.30;;;15.90;99.90;;;;;;6160131;23;20165;-91
2023/09/21 08:19:21;;;;;;;0.63;0.53;;;15.90;99.90;;;;;;6184248;23;20186;-92
2023/09/21 08:21:48;;;;;;;0.67;0.57;;;15.80;99.90;;;;;;6207828;23;20197;-92
2023/09/21 08:24:14;;;;;;;0.53;0.50;;;15.80;99.90;;;;;;6183692;23;20201;-91
2023/09/21 08:26:40;;;;;;;0.67;0.63;;;15.80;99.90;;;;;;6183506;23;20186;-91
2023/09/21 08:29:06;;;;;;;0.80;0.57;;;15.90;99.90;;;;;;6182812;23;20158;-92
2023/09/21 08:31:32;;;;;;;1.13;0.63;;;15.90;99.90;;;;;;6184467;23;20635;-93
2023/09/21 08:33:59;;;;;;;0.53;0.43;;;15.90;99.90;;;;;;6182604;23;20213;-91
2023/09/21 08:36:25;;;;;;;5.00;0.80;;;15.80;99.90;;;;;;6184026;23;20193;-91
2023/09/21 08:38:53;;;;;;;3.17;0.67;;;15.80;99.90;;;;;;6183516;23;20742;-91
2023/09/21 08:41:19;;;;;;;2.33;0.77;;;15.80;99.90;;;;;;6184687;23;20193;-90
2023/09/21 08:43:45;;;;;;;0.70;0.40;;;15.80;99.90;;;;;;6184108;23;20214;-92
2023/09/21 08:46:12;;;;;;;0.50;0.50;;;15.90;99.90;;;;;;6184721;23;20194;-92
2023/09/21 08:48:39;;;;;;;0.60;0.57;;;15.90;99.90;;;;;;6209359;23;20204;-90
2023/09/21 08:51:15;;;;;;;0.83;0.70;;;15.80;99.90;;;;;;6209391;23;20272;-91
2023/09/21 08:53:41;;;;;;;1.17;0.50;;;15.70;99.90;;;;;;6184660;23;20233;-91
2023/09/21 08:56:08;;;;;;;0.87;0.77;;;15.60;99.90;;;;;;6183889;23;20166;-91
2023/09/21 08:58:40;;;;;;;2.27;0.60;;;15.60;99.90;;;;;;6184546;23;20226;-91
2023/09/21 09:01:07;;;;;;;3.60;0.77;;;15.70;99.90;;;;;;6208404;23;20285;-91
2023/09/21 09:03:34;;;;;;;0.70;0.70;;;15.60;99.90;;;;;;6159484;23;20358;-92
2023/09/21 09:06:00;;;;;;;0.73;0.50;;;15.60;99.90;;;;;;6185821;23;20198;-92
2023/09/21 09:08:27;;;;;;;0.43;0.40;;;15.60;99.90;;;;;;6209048;23;20189;-91
2023/09/21 09:10:54;;;;;;;0.60;0.60;;;15.60;99.90;;;;;;6185269;23;20181;-93
2023/09/21 09:13:21;;;;;;;0.77;0.60;;;15.60;99.90;;;;;;6210152;23;20272;-92
2023/09/21 09:15:47;;;;;;;0.50;0.40;;;15.70;99.90;;;;;;6210396;23;20655;-91
2023/09/21 09:18:16;;;;;;;0.67;0.47;;;15.70;99.90;;;;;;6211428;23;20922;-93
2023/09/21 09:20:46;;;;;;;0.60;0.60;;;15.80;99.90;;;;;;6210679;23;21054;-95
2023/09/21 09:23:13;;;;;;;1.13;0.73;;;15.80;99.90;;;;;;6185674;23;20178;-94
2023/09/21 09:25:40;;;;;;;2.87;0.67;;;15.80;99.90;;;;;;6208965;23;20162;-93
2023/09/21 09:28:09;;;;;;;0.87;0.87;;;16.00;99.90;;;;;;6210190;23;20278;-92
2023/09/21 09:30:38;;;;;;;3.43;1.13;;;15.90;99.90;;;;;;6212327;23;20321;-92
2023/09/21 09:33:09;;;;;;;0.83;0.70;;;16.00;99.90;;;;;;6212169;23;20194;-93
2023/09/21 09:35:37;;;;;;;1.03;1.03;;;15.90;99.90;;;;;;6163361;23;20273;-92
2023/09/21 09:38:10;;;;;;;0.70;0.50;;;15.90;99.90;;;;;;6211019;23;20205;-93
2023/09/21 09:40:39;;;;;;;0.83;0.60;;;16.00;99.90;;;;;;6213980;23;20170;-93
2023/09/21 09:43:05;;;;;;;0.93;0.80;;;16.00;99.90;;;;;;6203044;23;20302;-92
2023/09/21 09:45:32;;;;;;;1.53;0.57;;;16.00;99.90;;;;;;6211032;23;20201;-92
2023/09/21 09:48:03;;;;;;;1.93;1.27;;;15.90;99.90;;;;;;6211389;23;20259;-93
2023/09/21 09:50:33;;;;;;;1.23;1.13;;;16.00;99.90;;;;;;6210410;23;20212;-91
2023/09/21 09:53:02;;;;;;;0.50;0.50;;;16.10;99.90;;;;;;6184942;23;20800;-92
2023/09/21 09:55:36;;;;;;;0.50;0.50;;;16.20;99.90;;;;;;6211081;23;20201;-91
2023/09/21 09:58:03;;;;;;;2.17;0.90;;;16.30;99.90;;;;;;6209913;23;20194;-91
2023/09/21 10:00:30;;;;;;;0.80;0.70;;;16.40;99.90;;;;;;6159115;23;20650;-92
2023/09/21 10:02:57;;;;;;;0.87;0.87;;;16.60;99.90;;;;;;6183712;23;20194;-91
2023/09/21 10:05:26;;;;;;;0.87;0.83;;;16.60;99.90;;;;;;6209024;23;20190;-90
2023/09/21 10:08:00;;;;;;;1.30;0.60;;;16.50;99.90;;;;;;6209270;23;20165;-89
2023/09/21 10:10:30;;;;;;;0.93;0.63;;;16.40;99.90;;;;;;6234358;23;20198;-90
2023/09/21 10:12:57;;;;;;;1.30;0.70;;;16.50;99.90;;;;;;6209646;23;20630;-90
2023/09/21 10:15:26;;;;;;;1.00;1.00;;;16.50;99.90;;;;;;6184512;23;20267;-91
2023/09/21 10:17:56;;;;;;;3.53;1.00;;;16.50;99.90;;;;;;6184022;23;20198;-92
2023/09/21 10:20:27;;;;;;;0.80;0.80;;;16.50;99.90;;;;;;6184448;23;20190;-91
2023/09/21 10:22:54;;;;;;;1.20;0.77;;;16.60;99.90;;;;;;6210200;23;20161;-90
2023/09/21 10:25:39;;;;;;;1.43;1.33;;;16.50;99.90;;;;;;6209395;23;20836;-90
2023/09/21 10:28:29;;;;;;;1.00;1.00;;;16.30;99.90;;;;;;6183870;23;20228;-90
2023/09/21 10:31:18;;;;;;;0.80;0.80;;;16.10;99.90;;;;;;6234185;23;20205;-90
2023/09/21 10:33:50;;;;;;;1.13;1.03;;;16.10;99.90;;;;;;6209437;23;20214;-90
2023/09/21 10:36:23;;;;;;;1.07;0.73;;;16.30;99.90;;;;;;6233574;23;20202;-90
2023/09/21 10:39:10;;;;;;;2.00;0.80;;;16.40;99.90;;;;;;6209271;23;20213;-92
2023/09/21 10:41:42;;;;;;;0.47;0.47;;;16.70;99.90;;;;;;6203982;23;20212;-89
2023/09/21 10:44:09;;;;;;;0.60;0.53;;;16.70;99.90;;;;;;6185808;23;20150;-89
2023/09/21 10:46:39;;;;;;;0.73;0.73;;;16.70;99.90;;;;;;6209909;23;20212;-90
2023/09/21 10:49:09;;;;;;;1.27;1.17;;;16.70;99.90;;;;;;6184220;23;20221;-90
2023/09/21 10:51:39;;;;;;;0.70;0.70;;;16.90;99.90;;;;;;6235045;23;20215;-91
2023/09/21 10:54:10;;;;;;;1.10;0.80;;;16.90;99.90;;;;;;6209559;23;20225;-89
2023/09/21 10:56:43;;;;;;;1.70;1.00;;;17.00;99.90;;;;;;6184832;23;20204;-91
2023/09/21 10:59:09;;;;;;;0.40;0.40;;;17.10;99.90;;;;;;6210032;23;20188;-91
2023/09/21 11:01:35;;;;;;;1.80;0.70;;;17.20;99.90;;;;;;6185950;23;20158;-91
2023/09/21 11:04:02;;;;;;;0.80;0.67;;;17.10;99.90;;;;;;6184679;23;20251;-92
2023/09/21 11:06:29;;;;;;;4.43;0.70;;;17.10;99.90;;;;;;6184595;23;20202;-89
2023/09/21 11:08:55;;;;;;;1.00;0.80;;;17.10;99.90;;;;;;6234360;23;20217;-88
2023/09/21 11:11:22;;;;;;;0.70;0.50;;;17.00;99.90;;;;;;6208012;23;20202;-89
2023/09/21 11:13:51;;;;;;;1.70;0.70;;;16.90;99.90;;;;;;6184046;23;20158;-89
2023/09/21 11:16:18;;;;;;;0.60;0.60;;;16.90;99.90;;;;;;6208827;23;20201;-89
2023/09/21 11:18:44;;;;;;;0.53;0.53;;;16.90;99.90;;;;;;6208287;23;20206;-88
2023/09/21 11:21:11;;;;;;;1.73;0.77;;;16.90;99.90;;;;;;6182930;23;20202;-88
2023/09/21 11:23:40;;;;;;;0.70;0.63;;;16.90;99.90;;;;;;6183072;23;20538;-88
2023/09/21 11:26:10;;;;;;;1.27;1.17;;;16.90;99.90;;;;;;6208658;23;20253;-88
2023/09/21 11:28:37;;;;;;;3.70;0.60;;;16.90;99.90;;;;;;6185827;23;20619;-91
2023/09/21 11:31:05;;;;;;;3.00;1.10;;;17.10;99.90;;;;;;6184095;23;20229;-92
2023/09/21 11:33:37;;;;;;;1.20;0.90;;;17.20;99.90;;;;;;6209740;23;20194;-91
2023/09/21 11:36:06;;;;;;;0.50;0.50;;;17.00;99.90;;;;;;6184738;23;20201;-90
2023/09/21 11:38:36;;;;;;;1.40;0.70;;;17.10;99.90;;;;;;6209808;23;20196;-90
2023/09/21 11:41:03;;;;;;;2.83;0.87;;;17.10;99.90;;;;;;6184585;23;20256;-90
2023/09/21 11:43:29;;;;;;;0.73;0.73;;;17.10;99.90;;;;;;6185030;23;20162;-91
2023/09/21 11:45:55;;;;;;;3.07;0.77;;;17.00;99.90;;;;;;6209369;23;20229;-91
2023/09/21 11:48:24;;;;;;;2.40;1.23;;;17.00;99.90;;;;;;6184824;23;20591;-91
2023/09/21 11:50:51;;;;;;;1.90;0.63;;;16.90;99.90;;;;;;6209944;23;20319;-91
2023/09/21 11:53:19;;;;;;;2.63;0.60;;;16.80;99.90;;;;;;6185221;23;20543;-91
2023/09/21 11:55:46;;;;;;;0.90;0.70;;;16.90;99.90;;;;;;6186915;23;20488;-91
2023/09/21 11:58:16;;;;;;;3.37;1.20;;;16.90;99.90;;;;;;6184967;23;20206;-91
2023/09/21 12:00:45;;;;;;;1.40;0.60;;;16.80;99.90;;;;;;6185894;23;20194;-91
2023/09/21 12:03:16;;;;;;;1.50;0.50;;;16.80;99.90;;;;;;6184502;23;20289;-90
2023/09/21 12:05:43;;;;;;;1.37;0.80;;;16.80;99.90;;;;;;6183694;23;20220;-90
2023/09/21 12:08:14;;;;;;;0.93;0.77;;;16.70;99.90;;;;;;6183398;23;20251;-90
2023/09/21 12:10:47;;;;;;;0.50;0.50;;;16.80;99.90;;;;;;6209960;23;20174;-90
2023/09/21 12:13:16;;;;;;;1.30;0.70;;;16.70;99.90;;;;;;6158894;23;20200;-91
2023/09/21 12:15:42;;;;;;;0.83;0.83;;;16.70;99.90;;;;;;6184484;23;20200;-90
2023/09/21 12:18:12;;;;;;;0.70;0.70;;;16.60;99.90;;;;;;6209226;23;20201;-91
2023/09/21 12:20:44;;;;;;;1.13;1.03;;;16.60;99.90;;;;;;6208848;23;20182;-91
2023/09/21 12:23:12;;;;;;;2.23;1.10;;;16.60;99.90;;;;;;6162125;23;20218;-91
2023/09/21 12:25:39;;;;;;;1.43;0.80;;;16.40;99.90;;;;;;6185440;23;20521;-90
2023/09/21 12:28:05;;;;;;;1.27;1.10;;;16.40;99.90;;;;;;6184894;23;20190;-91
2023/09/21 12:30:30;;;;;;;0.87;0.63;;;16.40;99.90;;;;;;6158971;23;20260;-91
2023/09/21 12:32:56;;;;;;;0.87;0.87;;;16.40;99.90;;;;;;6159225;23;20625;-91
2023/09/21 12:35:25;;;;;;;1.20;1.10;;;16.30;99.90;;;;;;6158721;23;20216;-91
2023/09/21 12:37:51;;;;;;;1.07;1.00;;;16.50;99.90;;;;;;6160963;23;20603;-91
2023/09/21 12:40:17;;;;;;;1.80;1.10;;;16.60;99.90;;;;;;6208586;23;20272;-90
2023/09/21 12:42:45;;;;;;;0.87;0.53;;;16.70;99.90;;;;;;6183693;23;20634;-91
2023/09/21 12:45:17;;;;;;;0.97;0.97;;;16.60;99.90;;;;;;6159839;23;20202;-91
2023/09/21 12:47:46;;;;;;;1.50;0.77;;;16.50;99.90;;;;;;6183663;23;20202;-89
2023/09/21 12:50:14;;;;;;;1.23;1.17;;;16.60;99.90;;;;;;6159176;23;20190;-89
2023/09/21 12:52:42;;;;;;;1.07;0.93;;;16.60;99.90;;;;;;6182795;23;20197;-89
2023/09/21 12:55:11;;;;;;;1.83;1.17;;;16.50;99.90;;;;;;6184288;23;20281;-90
2023/09/21 12:57:40;;;;;;;1.27;0.80;;;16.50;99.90;;;;;;6207311;23;20521;-91
2023/09/21 13:00:29;;;;;;;0.90;0.80;;;16.50;99.90;;;;;;6183988;23;20280;-90